메인 페이지
METAR-TAF:

METAR-TAF

공항 :

Førde, 노르웨이

위도: 61-27N, 경도: 005-52E, 고도: 150m

현재 날씨관측

예보는 42분 전, 14:20시(UTC)에 발표되었습니다.
10kt서남서풍과 서북서풍을 오가는
온도 10°C
습도 87%
기압 1015 hPa
시정: 8000m
고도 300ft 상공 구름 조금
고도 1200ft 상공 구름 보통
고도 2500ft 상공 구름 많음
약한소나기,

METAR: ENBL 201420Z 27010KT 240V300 8000 -SHRA FEW003 SCT012 BKN025 10/08 Q1015

시각: 17:02 (15:02 UTC)

예보

예보는 1 시간 2분 전, 14:00시(UTC)에 발표되었습니다.
예보 대상 시간: 20일 15시부터 20일 22시까지 (UTC)
서남서8kt
시정 10km 이상
고도 500ft 상공 구름 조금
고도 1500ft 상공 구름 보통
고도 2500ft 상공 구름 많음
약한비
확률 40% :
일시적
20일 15시부터 20일 19시까지 (UTC)
시정: 4000m
고도 500ft 상공 구름 보통
고도 1200ft 상공 구름 많음, 타워링 적운.
약한소나기, 박무
일시적
20일 19시부터 20일 22시까지 (UTC)
시정: 4000m
고도 800ft 상공 구름 많음
약한비, 이슬비, 박무,

TAF: ENBL 201400Z 2015/2022 25008KT 9999 -RA FEW005 SCT015 BKN025 PROB40 TEMPO 2015/2019 4000 -SHRA BR SCT005 BKN012TCU TEMPO 2019/2022 4000 -RADZ BR BKN008

4,000개 이상의 공항 관측 자료 및 예보 (METAR 및 TAF 보고).

지도상에서 검색 가능한 기상관측소가 노란 점과 빨간 점으로 표시되어 있습니다.

기상관측소 명을 보려면 표시 위로 마우스를 이동하세요.

날씨 관측과 예보를 보려면 클릭하세요.

지도 변경 : 확대하려면 엑스 표시가 있는 녹색 버튼, 축소하려면 빼기 표시가 있는 녹색 버튼, 다음 페이지의 지도를 보려면 녹색 화살표를 클릭하세요.


METAR-TAF: